<?xml version="1.0" encoding="UTF-8" standalone="no" ?>
<gpx xmlns="http://www.topografix.com/GPX/1/1" xmlns:xsi="http://www.w3.org/2001/XMLSchema-instance" xsi:schemaLocation="http://www.topografix.com/GPX/1/1 http://www.topografix.com/GPX/1/1/gpx.xsd" version="1.1" creator="VisuGPX - https://www.visugpx.com">
  <metadata>
    <name>Domératise 2016</name>
    <desc><![CDATA[Circuit pédestre 16 kilomètres.]]></desc>
  </metadata>
  <trk>
    <name><![CDATA[14.00_Pedestre_Domeratoise 2016]]></name>
    <trkseg>
      <trkpt lat="46.35997" lon="2.55532">
        <ele>229</ele>
        <time>2016-10-03T19:10:11Z</time>
      </trkpt>
      <trkpt lat="46.36004" lon="2.55445">
        <ele>229</ele>
        <time>2016-10-03T19:12:11Z</time>
      </trkpt>
      <trkpt lat="46.36096" lon="2.55488">
        <ele>227</ele>
        <time>2016-10-03T19:14:11Z</time>
      </trkpt>
      <trkpt lat="46.36101" lon="2.55382">
        <ele>228</ele>
        <time>2016-10-03T19:16:11Z</time>
      </trkpt>
      <trkpt lat="46.36146" lon="2.55189">
        <ele>225</ele>
        <time>2016-10-03T19:18:11Z</time>
      </trkpt>
      <trkpt lat="46.36209" lon="2.55049">
        <ele>223</ele>
        <time>2016-10-03T19:20:11Z</time>
      </trkpt>
      <trkpt lat="46.36023" lon="2.54624">
        <ele>229</ele>
        <time>2016-10-03T19:22:11Z</time>
      </trkpt>
      <trkpt lat="46.35962" lon="2.54464">
        <ele>233</ele>
        <time>2016-10-03T19:24:11Z</time>
      </trkpt>
      <trkpt lat="46.35929" lon="2.54571">
        <ele>232</ele>
        <time>2016-10-03T19:26:11Z</time>
      </trkpt>
      <trkpt lat="46.35908" lon="2.54513">
        <ele>233</ele>
        <time>2016-10-03T19:28:11Z</time>
      </trkpt>
      <trkpt lat="46.35853" lon="2.54504">
        <ele>233</ele>
        <time>2016-10-03T19:30:11Z</time>
      </trkpt>
      <trkpt lat="46.35813" lon="2.54396">
        <ele>235</ele>
        <time>2016-10-03T19:32:11Z</time>
      </trkpt>
      <trkpt lat="46.35729" lon="2.54493">
        <ele>237</ele>
        <time>2016-10-03T19:34:11Z</time>
      </trkpt>
      <trkpt lat="46.35597" lon="2.5439">
        <ele>244</ele>
        <time>2016-10-03T19:36:11Z</time>
      </trkpt>
      <trkpt lat="46.35469" lon="2.54369">
        <ele>248</ele>
        <time>2016-10-03T19:38:11Z</time>
      </trkpt>
      <trkpt lat="46.35347" lon="2.54295">
        <ele>250</ele>
        <time>2016-10-03T19:40:11Z</time>
      </trkpt>
      <trkpt lat="46.35256" lon="2.53998">
        <ele>254</ele>
        <time>2016-10-03T19:42:11Z</time>
      </trkpt>
      <trkpt lat="46.35167" lon="2.54061">
        <ele>258</ele>
        <time>2016-10-03T19:44:11Z</time>
      </trkpt>
      <trkpt lat="46.35167" lon="2.53881">
        <ele>259</ele>
        <time>2016-10-03T19:46:11Z</time>
      </trkpt>
      <trkpt lat="46.35277" lon="2.53532">
        <ele>260</ele>
        <time>2016-10-03T19:48:11Z</time>
      </trkpt>
      <trkpt lat="46.35111" lon="2.53326">
        <ele>272</ele>
        <time>2016-10-03T19:50:11Z</time>
      </trkpt>
      <trkpt lat="46.35018" lon="2.52988">
        <ele>282</ele>
        <time>2016-10-03T19:52:11Z</time>
      </trkpt>
      <trkpt lat="46.35117" lon="2.53031">
        <ele>275</ele>
        <time>2016-10-03T19:54:11Z</time>
      </trkpt>
      <trkpt lat="46.35149" lon="2.52954">
        <ele>269</ele>
        <time>2016-10-03T19:56:11Z</time>
      </trkpt>
      <trkpt lat="46.35159" lon="2.52727">
        <ele>264</ele>
        <time>2016-10-03T19:58:11Z</time>
      </trkpt>
      <trkpt lat="46.35168" lon="2.52666">
        <ele>264</ele>
        <time>2016-10-03T20:00:11Z</time>
      </trkpt>
      <trkpt lat="46.35099" lon="2.52595">
        <ele>270</ele>
        <time>2016-10-03T20:02:11Z</time>
      </trkpt>
      <trkpt lat="46.35104" lon="2.52477">
        <ele>271</ele>
        <time>2016-10-03T20:04:11Z</time>
      </trkpt>
      <trkpt lat="46.35064" lon="2.5234">
        <ele>272</ele>
        <time>2016-10-03T20:06:11Z</time>
      </trkpt>
      <trkpt lat="46.34895" lon="2.52183">
        <ele>285</ele>
        <time>2016-10-03T20:08:11Z</time>
      </trkpt>
      <trkpt lat="46.34688" lon="2.52045">
        <ele>297</ele>
        <time>2016-10-03T20:10:11Z</time>
      </trkpt>
      <trkpt lat="46.3474" lon="2.51772">
        <ele>300</ele>
        <time>2016-10-03T20:12:11Z</time>
      </trkpt>
      <trkpt lat="46.34741" lon="2.51649">
        <ele>301</ele>
        <time>2016-10-03T20:14:11Z</time>
      </trkpt>
      <trkpt lat="46.34797" lon="2.5162">
        <ele>302</ele>
        <time>2016-10-03T20:16:11Z</time>
      </trkpt>
      <trkpt lat="46.34864" lon="2.51608">
        <ele>304</ele>
        <time>2016-10-03T20:18:11Z</time>
      </trkpt>
      <trkpt lat="46.3491" lon="2.51567">
        <ele>307</ele>
        <time>2016-10-03T20:20:11Z</time>
      </trkpt>
      <trkpt lat="46.349" lon="2.51249">
        <ele>324</ele>
        <time>2016-10-03T20:22:11Z</time>
      </trkpt>
      <trkpt lat="46.34914" lon="2.51194">
        <ele>324</ele>
        <time>2016-10-03T20:24:11Z</time>
      </trkpt>
      <trkpt lat="46.34665" lon="2.50854">
        <ele>353</ele>
        <time>2016-10-03T20:26:11Z</time>
      </trkpt>
      <trkpt lat="46.3443" lon="2.50446">
        <ele>378</ele>
        <time>2016-10-03T20:28:11Z</time>
      </trkpt>
      <trkpt lat="46.34408" lon="2.50393">
        <ele>380</ele>
        <time>2016-10-03T20:30:11Z</time>
      </trkpt>
      <trkpt lat="46.3431" lon="2.50253">
        <ele>385</ele>
        <time>2016-10-03T20:32:11Z</time>
      </trkpt>
      <trkpt lat="46.34178" lon="2.50246">
        <ele>382</ele>
        <time>2016-10-03T20:34:11Z</time>
      </trkpt>
      <trkpt lat="46.34007" lon="2.50324">
        <ele>386</ele>
        <time>2016-10-03T20:36:11Z</time>
      </trkpt>
      <trkpt lat="46.33794" lon="2.50329">
        <ele>380</ele>
        <time>2016-10-03T20:38:11Z</time>
      </trkpt>
      <trkpt lat="46.33536" lon="2.50603">
        <ele>376</ele>
        <time>2016-10-03T20:40:11Z</time>
      </trkpt>
      <trkpt lat="46.33494" lon="2.50693">
        <ele>371</ele>
        <time>2016-10-03T20:42:11Z</time>
      </trkpt>
      <trkpt lat="46.33405" lon="2.50658">
        <ele>375</ele>
        <time>2016-10-03T20:44:11Z</time>
      </trkpt>
      <trkpt lat="46.33334" lon="2.5067">
        <ele>377</ele>
        <time>2016-10-03T20:46:11Z</time>
      </trkpt>
      <trkpt lat="46.33322" lon="2.50801">
        <ele>382</ele>
        <time>2016-10-03T20:48:11Z</time>
      </trkpt>
      <trkpt lat="46.332" lon="2.50929">
        <ele>392</ele>
        <time>2016-10-03T20:50:11Z</time>
      </trkpt>
      <trkpt lat="46.33275" lon="2.51059">
        <ele>386</ele>
        <time>2016-10-03T20:52:11Z</time>
      </trkpt>
      <trkpt lat="46.33391" lon="2.51178">
        <ele>379</ele>
        <time>2016-10-03T20:54:11Z</time>
      </trkpt>
      <trkpt lat="46.33552" lon="2.51344">
        <ele>369</ele>
        <time>2016-10-03T20:56:11Z</time>
      </trkpt>
      <trkpt lat="46.33733" lon="2.51415">
        <ele>364</ele>
        <time>2016-10-03T20:58:11Z</time>
      </trkpt>
      <trkpt lat="46.33932" lon="2.51554">
        <ele>357</ele>
        <time>2016-10-03T21:00:11Z</time>
      </trkpt>
      <trkpt lat="46.34087" lon="2.51589">
        <ele>348</ele>
        <time>2016-10-03T21:02:11Z</time>
      </trkpt>
      <trkpt lat="46.34176" lon="2.51616">
        <ele>342</ele>
        <time>2016-10-03T21:04:11Z</time>
      </trkpt>
      <trkpt lat="46.34172" lon="2.51715">
        <ele>341</ele>
        <time>2016-10-03T21:06:11Z</time>
      </trkpt>
      <trkpt lat="46.34214" lon="2.51721">
        <ele>339</ele>
        <time>2016-10-03T21:08:11Z</time>
      </trkpt>
      <trkpt lat="46.34212" lon="2.51836">
        <ele>337</ele>
        <time>2016-10-03T21:10:11Z</time>
      </trkpt>
      <trkpt lat="46.34219" lon="2.51951">
        <ele>339</ele>
        <time>2016-10-03T21:12:11Z</time>
      </trkpt>
      <trkpt lat="46.34281" lon="2.52083">
        <ele>345</ele>
        <time>2016-10-03T21:14:11Z</time>
      </trkpt>
      <trkpt lat="46.34236" lon="2.52061">
        <ele>345</ele>
        <time>2016-10-03T21:16:11Z</time>
      </trkpt>
      <trkpt lat="46.34228" lon="2.52095">
        <ele>345</ele>
        <time>2016-10-03T21:18:11Z</time>
      </trkpt>
      <trkpt lat="46.34266" lon="2.52138">
        <ele>342</ele>
        <time>2016-10-03T21:20:11Z</time>
      </trkpt>
      <trkpt lat="46.3421" lon="2.52322">
        <ele>334</ele>
        <time>2016-10-03T21:22:11Z</time>
      </trkpt>
      <trkpt lat="46.34331" lon="2.52531">
        <ele>317</ele>
        <time>2016-10-03T21:24:11Z</time>
      </trkpt>
      <trkpt lat="46.34274" lon="2.52627">
        <ele>320</ele>
        <time>2016-10-03T21:26:11Z</time>
      </trkpt>
      <trkpt lat="46.34425" lon="2.52818">
        <ele>306</ele>
        <time>2016-10-03T21:28:11Z</time>
      </trkpt>
      <trkpt lat="46.34292" lon="2.53019">
        <ele>301</ele>
        <time>2016-10-03T21:30:11Z</time>
      </trkpt>
      <trkpt lat="46.34504" lon="2.53498">
        <ele>286</ele>
        <time>2016-10-03T21:32:11Z</time>
      </trkpt>
      <trkpt lat="46.34524" lon="2.53549">
        <ele>284</ele>
        <time>2016-10-03T21:34:11Z</time>
      </trkpt>
      <trkpt lat="46.34548" lon="2.53556">
        <ele>283</ele>
        <time>2016-10-03T21:36:11Z</time>
      </trkpt>
      <trkpt lat="46.34579" lon="2.53539">
        <ele>284</ele>
        <time>2016-10-03T21:38:11Z</time>
      </trkpt>
      <trkpt lat="46.34691" lon="2.53765">
        <ele>275</ele>
        <time>2016-10-03T21:40:11Z</time>
      </trkpt>
      <trkpt lat="46.34735" lon="2.53934">
        <ele>271</ele>
        <time>2016-10-03T21:42:11Z</time>
      </trkpt>
      <trkpt lat="46.34864" lon="2.54175">
        <ele>259</ele>
        <time>2016-10-03T21:44:11Z</time>
      </trkpt>
      <trkpt lat="46.34936" lon="2.54244">
        <ele>257</ele>
        <time>2016-10-03T21:46:11Z</time>
      </trkpt>
      <trkpt lat="46.34835" lon="2.54375">
        <ele>255</ele>
        <time>2016-10-03T21:48:11Z</time>
      </trkpt>
      <trkpt lat="46.3476" lon="2.54547">
        <ele>251</ele>
        <time>2016-10-03T21:50:11Z</time>
      </trkpt>
      <trkpt lat="46.34893" lon="2.54583">
        <ele>254</ele>
        <time>2016-10-03T21:52:11Z</time>
      </trkpt>
      <trkpt lat="46.34919" lon="2.54688">
        <ele>255</ele>
        <time>2016-10-03T21:54:11Z</time>
      </trkpt>
      <trkpt lat="46.35117" lon="2.55134">
        <ele>252</ele>
        <time>2016-10-03T21:56:11Z</time>
      </trkpt>
      <trkpt lat="46.35278" lon="2.553">
        <ele>250</ele>
        <time>2016-10-03T21:58:11Z</time>
      </trkpt>
      <trkpt lat="46.35336" lon="2.55339">
        <ele>248</ele>
        <time>2016-10-03T22:00:11Z</time>
      </trkpt>
      <trkpt lat="46.35399" lon="2.5507">
        <ele>248</ele>
        <time>2016-10-03T22:02:11Z</time>
      </trkpt>
      <trkpt lat="46.35446" lon="2.55137">
        <ele>246</ele>
        <time>2016-10-03T22:04:11Z</time>
      </trkpt>
      <trkpt lat="46.35501" lon="2.55162">
        <ele>244</ele>
        <time>2016-10-03T22:06:11Z</time>
      </trkpt>
      <trkpt lat="46.35636" lon="2.55307">
        <ele>241</ele>
        <time>2016-10-03T22:08:11Z</time>
      </trkpt>
      <trkpt lat="46.35809" lon="2.55389">
        <ele>234</ele>
        <time>2016-10-03T22:10:11Z</time>
      </trkpt>
      <trkpt lat="46.36031" lon="2.55461">
        <ele>228</ele>
        <time>2016-10-03T22:12:11Z</time>
      </trkpt>
      <trkpt lat="46.36003" lon="2.55515">
        <ele>229</ele>
        <time>2016-10-03T22:14:11Z</time>
      </trkpt>
    </trkseg>
  </trk>
</gpx>